Time;durP1;ratioP1;P1;durP2;ratioP2;P2;SDS_P1;SDS_P2;PMS_P1;PMS_P2;Temp;Humidity;BMP_temperature;BMP_pressure;BME280_temperature;BME280_humidity;BME280_pressure;Samples;Min_cycle;Max_cycle;Signal;HPM_P1;HPM_P2
2022/09/05 00:02:01;;;;;;;5.00;2.13;;;20.50;99.90;;;;;;12476343;28;20044;-39
2022/09/05 00:08:26;;;;;;;5.65;2.47;;;20.50;99.90;;;;;;12468450;28;20054;-39
2022/09/05 00:14:55;;;;;;;6.80;2.85;;;20.20;99.90;;;;;;12473135;28;20455;-40
2022/09/05 00:21:30;;;;;;;8.43;2.63;;;20.20;99.90;;;;;;12482206;28;20046;-39
2022/09/05 00:28:03;;;;;;;4.65;2.60;;;19.90;99.90;;;;;;12471401;28;20382;-39
2022/09/05 00:34:48;;;;;;;5.13;2.80;;;20.00;99.90;;;;;;12477194;28;20057;-39
2022/09/05 00:41:01;;;;;;;3.15;2.40;;;20.00;99.90;;;;;;12485867;28;20041;-38
2022/09/05 00:47:15;;;;;;;4.40;2.15;;;19.90;99.90;;;;;;12488619;28;20053;-39
2022/09/05 00:53:24;;;;;;;4.32;2.35;;;19.90;99.90;;;;;;12458686;28;20198;-40
2022/09/05 01:00:06;;;;;;;7.72;2.97;;;19.90;99.90;;;;;;12456401;28;20053;-39
2022/09/05 01:06:24;;;;;;;4.40;2.63;;;19.70;99.90;;;;;;12482021;28;20529;-40
2022/09/05 01:12:42;;;;;;;3.28;2.42;;;19.70;99.90;;;;;;12486468;28;20060;-39
2022/09/05 01:19:23;;;;;;;4.95;2.97;;;19.50;99.90;;;;;;12484839;28;20048;-39
2022/09/05 01:25:47;;;;;;;4.15;2.47;;;19.40;99.90;;;;;;12484245;28;20065;-39
2022/09/05 01:32:04;;;;;;;6.50;3.15;;;19.40;99.90;;;;;;12482021;28;20088;-39
2022/09/05 01:38:44;;;;;;;3.95;2.40;;;19.20;99.90;;;;;;12487949;28;20049;-40
2022/09/05 01:45:18;;;;;;;9.43;2.70;;;19.00;99.90;;;;;;12493001;28;20052;-39
2022/09/05 01:52:04;;;;;;;3.38;2.40;;;19.00;99.90;;;;;;12474000;28;20104;-39
2022/09/05 01:58:42;;;;;;;7.10;2.10;;;19.10;99.90;;;;;;12489379;28;20041;-39
2022/09/05 02:05:11;;;;;;;3.38;2.20;;;19.30;99.90;;;;;;12476149;28;20091;-39
2022/09/05 02:11:15;;;;;;;4.45;2.20;;;19.30;99.90;;;;;;12479330;28;20098;-39
2022/09/05 02:17:50;;;;;;;6.15;2.05;;;19.30;99.90;;;;;;12479209;28;20063;-40
2022/09/05 02:24:30;;;;;;;4.00;2.30;;;19.30;99.90;;;;;;12476001;28;20056;-39
2022/09/05 02:30:38;;;;;;;3.92;2.45;;;19.20;99.90;;;;;;12484519;28;20069;-39
2022/09/05 02:37:05;;;;;;;4.45;2.42;;;19.10;99.90;;;;;;12477261;28;20057;-40
2022/09/05 02:43:24;;;;;;;4.25;2.15;;;19.10;99.90;;;;;;12492551;28;20042;-41
2022/09/05 02:50:23;;;;;;;4.63;2.53;;;19.10;99.90;;;;;;12476443;28;20471;-40
2022/09/05 02:56:51;;;;;;;4.78;2.40;;;18.90;99.90;;;;;;12454733;28;20042;-39
2022/09/05 03:03:39;;;;;;;4.50;2.17;;;18.80;99.90;;;;;;12480817;28;20045;-40
2022/09/05 03:10:01;;;;;;;3.97;2.25;;;18.80;99.90;;;;;;12483892;28;20053;-39
2022/09/05 03:16:09;;;;;;;6.68;2.60;;;18.80;99.90;;;;;;12481320;28;20177;-40
2022/09/05 03:22:48;;;;;;;3.15;2.50;;;18.80;99.90;;;;;;12485852;28;20095;-38
2022/09/05 03:29:15;;;;;;;5.18;2.70;;;18.70;99.90;;;;;;12480386;28;20056;-39
2022/09/05 03:35:54;;;;;;;4.70;2.83;;;18.60;99.90;;;;;;12481822;28;20429;-39
2022/09/05 03:42:31;;;;;;;4.97;2.88;;;18.50;99.90;;;;;;12479940;28;20049;-39
2022/09/05 03:48:50;;;;;;;3.85;2.70;;;18.50;99.90;;;;;;12477345;28;20058;-39
2022/09/05 03:55:06;;;;;;;5.95;2.60;;;18.40;99.90;;;;;;12484542;28;20098;-40
2022/09/05 04:01:34;;;;;;;4.57;2.70;;;18.40;99.90;;;;;;12474963;28;20115;-40
2022/09/05 04:08:12;;;;;;;4.32;2.50;;;18.50;99.90;;;;;;12488718;28;20054;-39
2022/09/05 04:14:40;;;;;;;4.63;2.50;;;18.40;99.90;;;;;;12484590;28;20124;-39
2022/09/05 04:20:48;;;;;;;3.55;2.50;;;18.40;99.90;;;;;;12476681;28;20049;-39
2022/09/05 04:27:15;;;;;;;5.53;2.80;;;18.30;99.90;;;;;;12469487;28;20045;-39
2022/09/05 04:33:32;;;;;;;6.50;2.58;;;18.30;99.90;;;;;;12486445;28;20053;-40
2022/09/05 04:39:37;;;;;;;5.93;3.00;;;18.30;99.90;;;;;;12483691;28;20080;-39
2022/09/05 04:45:48;;;;;;;5.60;2.47;;;18.40;99.90;;;;;;12476705;28;20045;-39
2022/09/05 04:52:02;;;;;;;4.07;2.35;;;18.40;99.90;;;;;;12480653;28;20050;-39
2022/09/05 04:58:10;;;;;;;3.50;2.38;;;18.30;99.90;;;;;;12491481;28;20054;-39
2022/09/05 05:04:17;;;;;;;8.07;2.42;;;18.20;99.90;;;;;;12489908;28;20045;-39
2022/09/05 05:10:44;;;;;;;5.38;2.10;;;18.10;99.90;;;;;;12485916;28;20099;-39
2022/09/05 05:17:25;;;;;;;4.88;2.38;;;18.10;99.90;;;;;;12475589;28;20131;-39
2022/09/05 05:24:07;;;;;;;3.78;2.33;;;18.10;99.90;;;;;;12471698;28;20044;-38
2022/09/05 05:30:10;;;;;;;4.65;2.50;;;18.20;99.90;;;;;;12487189;28;20136;-41
2022/09/05 05:36:34;;;;;;;7.33;2.37;;;18.20;99.90;;;;;;12468637;28;20296;-40
2022/09/05 05:42:38;;;;;;;6.00;2.50;;;18.30;99.90;;;;;;12476870;28;20042;-39
2022/09/05 05:48:45;;;;;;;6.63;2.72;;;18.40;99.90;;;;;;12479569;28;20292;-39
2022/09/05 05:55:24;;;;;;;6.05;2.78;;;18.50;99.90;;;;;;12456599;28;20110;-39
2022/09/05 06:02:17;;;;;;;5.88;3.00;;;18.60;99.90;;;;;;12459012;28;20574;-39
2022/09/05 06:08:52;;;;;;;6.05;2.60;;;18.70;99.90;;;;;;12480804;28;20049;-39
2022/09/05 06:15:43;;;;;;;5.05;2.58;;;18.70;99.90;;;;;;12470696;28;20042;-39
2022/09/05 06:22:03;;;;;;;7.15;2.50;;;18.80;99.90;;;;;;12465286;28;20069;-39
2022/09/05 06:28:37;;;;;;;6.00;2.60;;;18.90;99.90;;;;;;12477522;28;20077;-39
2022/09/05 06:35:21;;;;;;;4.85;2.40;;;19.00;99.90;;;;;;12481605;28;20467;-39
2022/09/05 06:41:50;;;;;;;4.77;2.70;;;19.00;99.90;;;;;;12467258;28;20168;-40
2022/09/05 06:48:18;;;;;;;7.45;2.92;;;19.20;99.90;;;;;;12473828;28;20057;-39
2022/09/05 06:55:25;;;;;;;7.30;2.85;;;19.20;99.90;;;;;;12473409;28;20524;-39
2022/09/05 07:01:35;;;;;;;9.90;2.72;;;19.30;99.90;;;;;;12479272;28;20502;-39
2022/09/05 07:08:14;;;;;;;5.38;2.58;;;19.30;99.90;;;;;;12473616;28;20050;-39
2022/09/05 07:15:02;;;;;;;7.32;2.88;;;19.30;99.90;;;;;;12474370;28;20860;-39
2022/09/05 07:21:37;;;;;;;6.15;2.42;;;19.40;99.90;;;;;;12465572;28;20049;-39
2022/09/05 07:27:50;;;;;;;6.32;1.80;;;19.70;99.90;;;;;;12476262;28;20057;-40
2022/09/05 07:34:21;;;;;;;3.80;1.90;;;19.90;99.90;;;;;;12475488;28;20100;-39
2022/09/05 07:40:25;;;;;;;5.35;2.22;;;20.30;99.90;;;;;;12469360;28;20086;-39
2022/09/05 07:46:32;;;;;;;3.35;1.80;;;20.70;99.90;;;;;;12471700;28;20073;-40
2022/09/05 07:52:39;;;;;;;5.47;1.90;;;20.80;99.90;;;;;;12468957;28;20132;-39
2022/09/05 07:59:03;;;;;;;4.03;1.42;;;20.90;99.90;;;;;;12460219;28;20050;-39
2022/09/05 08:05:06;;;;;;;3.50;1.50;;;21.40;99.90;;;;;;12474009;28;20042;-39
2022/09/05 08:11:12;;;;;;;6.88;1.75;;;21.70;99.90;;;;;;12472348;28;21049;-39
2022/09/05 08:17:27;;;;;;;13.38;2.28;;;22.00;99.90;;;;;;12467033;28;20060;-40
2022/09/05 08:23:53;;;;;;;4.65;1.90;;;21.80;99.90;;;;;;12461763;28;20045;-39
2022/09/05 08:30:05;;;;;;;4.82;1.83;;;21.90;99.90;;;;;;12467807;28;20068;-40
2022/09/05 08:36:40;;;;;;;5.13;1.90;;;21.90;99.90;;;;;;12466460;28;20069;-39
2022/09/05 08:42:48;;;;;;;8.57;2.08;;;22.10;99.90;;;;;;12474758;28;20123;-39
2022/09/05 08:49:47;;;;;;;3.80;1.52;;;22.20;99.90;;;;;;12471216;28;20054;-40
2022/09/05 08:56:00;;;;;;;5.13;2.15;;;22.40;99.90;;;;;;12481664;28;20052;-39
2022/09/05 09:02:24;;;;;;;4.20;1.80;;;22.60;99.90;;;;;;12476655;28;20045;-39
2022/09/05 09:09:12;;;;;;;5.63;1.70;;;23.00;99.90;;;;;;12485664;28;20288;-39
2022/09/05 09:15:36;;;;;;;6.15;2.03;;;23.30;99.90;;;;;;12467995;28;20232;-41
2022/09/05 09:21:55;;;;;;;8.93;2.20;;;23.30;99.90;;;;;;12480819;28;20179;-40
2022/09/05 09:28:20;;;;;;;3.72;1.95;;;23.50;99.90;;;;;;12478383;28;20053;-41
2022/09/05 09:34:59;;;;;;;5.65;2.15;;;23.70;99.90;;;;;;12466171;28;20049;-40
2022/09/05 09:41:35;;;;;;;3.47;1.67;;;23.90;99.90;;;;;;12475582;28;20504;-40
2022/09/05 09:48:12;;;;;;;2.00;1.30;;;24.30;99.90;;;;;;12453658;28;20060;-39
2022/09/05 09:54:40;;;;;;;4.72;1.40;;;24.90;99.90;;;;;;12473958;28;20053;-39
2022/09/05 10:00:50;;;;;;;5.68;1.42;;;25.00;99.90;;;;;;12473659;28;20550;-40
2022/09/05 10:07:26;;;;;;;5.40;1.55;;;25.20;99.90;;;;;;12473335;28;20128;-39
2022/09/05 10:14:15;;;;;;;2.15;1.10;;;25.50;99.90;;;;;;12482770;28;20506;-41
2022/09/05 10:20:49;;;;;;;2.60;1.30;;;26.00;99.90;;;;;;12473755;28;20433;-39
2022/09/05 10:27:26;;;;;;;3.78;1.23;;;26.20;99.90;;;;;;12474327;28;20054;-41
2022/09/05 10:33:37;;;;;;;4.97;1.27;;;26.40;99.90;;;;;;12465940;28;20049;-40
2022/09/05 10:40:04;;;;;;;2.95;1.63;;;27.00;99.90;;;;;;12465382;28;20068;-39
2022/09/05 10:46:32;;;;;;;4.35;1.60;;;26.80;99.90;;;;;;12479738;28;20054;-40
2022/09/05 10:53:19;;;;;;;2.63;1.42;;;26.80;99.90;;;;;;12469509;28;20050;-40
2022/09/05 10:59:29;;;;;;;3.70;1.40;;;27.40;99.90;;;;;;12470103;28;20065;-40
2022/09/05 11:05:57;;;;;;;2.63;1.10;;;27.60;99.90;;;;;;12482010;28;20068;-40
2022/09/05 11:12:10;;;;;;;4.40;1.30;;;27.50;99.90;;;;;;12475257;28;20060;-39
2022/09/05 11:18:37;;;;;;;2.40;1.20;;;27.70;99.90;;;;;;12467670;28;20113;-39
2022/09/05 11:25:01;;;;;;;2.20;1.20;;;27.50;99.90;;;;;;12465531;28;20104;-39
2022/09/05 11:31:10;;;;;;;1.90;1.10;;;26.80;99.90;;;;;;12482799;28;20616;-39
2022/09/05 11:37:40;;;;;;;2.53;1.20;;;26.60;99.90;;;;;;12464054;28;20054;-39
2022/09/05 11:44:27;;;;;;;2.85;1.23;;;26.60;99.90;;;;;;12471183;28;20037;-39
2022/09/05 11:51:03;;;;;;;7.45;1.45;;;27.60;99.90;;;;;;12467858;28;20061;-39
2022/09/05 11:57:22;;;;;;;4.22;1.48;;;28.10;99.90;;;;;;12476058;28;20467;-39
2022/09/05 12:04:15;;;;;;;3.42;1.60;;;27.60;99.90;;;;;;12463866;28;20037;-39
2022/09/05 12:10:38;;;;;;;2.15;1.13;;;27.20;99.90;;;;;;12472801;28;20046;-39
2022/09/05 12:17:07;;;;;;;2.72;1.17;;;27.50;99.90;;;;;;12461829;28;20053;-39
2022/09/05 12:23:56;;;;;;;3.65;1.33;;;28.10;99.90;;;;;;12468914;28;20053;-39
2022/09/05 12:30:29;;;;;;;5.03;1.13;;;28.20;99.90;;;;;;12485662;28;20049;-39
2022/09/05 12:36:55;;;;;;;2.00;0.93;;;28.80;99.90;;;;;;12484960;28;20050;-39
2022/09/05 12:43:22;;;;;;;5.22;1.10;;;29.40;99.90;;;;;;12482608;28;20053;-39
2022/09/05 12:49:57;;;;;;;4.43;1.25;;;29.90;99.90;;;;;;12481036;28;20080;-39
2022/09/05 12:56:28;;;;;;;1.65;1.08;;;29.90;99.90;;;;;;12477167;28;20077;-39
2022/09/05 13:02:59;;;;;;;3.15;1.00;;;29.80;99.90;;;;;;12487383;28;20064;-39
2022/09/05 13:09:43;;;;;;;3.45;1.23;;;29.60;99.90;;;;;;12479424;28;20071;-40
2022/09/05 13:22:30;;;;;;;2.35;1.30;;;30.20;99.90;;;;;;12063988;22;20619;-36
2022/09/05 13:28:50;;;;;;;5.10;1.05;;;29.90;99.90;;;;;;12472850;28;20061;-35
2022/09/05 13:35:24;;;;;;;1.63;0.88;;;29.70;99.90;;;;;;12479135;28;20041;-36
2022/09/05 13:41:58;;;;;;;2.38;1.13;;;30.00;99.90;;;;;;12486338;28;20164;-34
2022/09/05 13:48:26;;;;;;;2.10;0.85;;;30.10;99.90;;;;;;12459379;28;20091;-35
2022/09/05 13:54:55;;;;;;;3.63;1.10;;;30.10;99.90;;;;;;12472513;28;20050;-35
2022/09/05 14:01:08;;;;;;;4.03;1.40;;;30.20;99.90;;;;;;12477789;28;20545;-34
2022/09/05 14:07:46;;;;;;;1.38;0.77;;;29.70;99.90;;;;;;12483160;28;20044;-34
2022/09/05 14:14:03;;;;;;;2.63;0.90;;;29.30;99.90;;;;;;12475308;28;20394;-35
2022/09/05 14:26:33;;;;;;;19.50;1.60;;;29.10;99.90;;;;;;12428178;28;20069;-35
2022/09/05 14:33:14;;;;;;;3.35;1.13;;;29.40;99.90;;;;;;12422160;28;20057;-35
2022/09/05 14:40:10;;;;;;;1.67;1.10;;;29.20;99.90;;;;;;12408099;28;20439;-36
2022/09/05 14:47:08;;;;;;;2.00;0.80;;;28.90;99.90;;;;;;12426922;28;20128;-34
2022/09/05 14:53:30;;;;;;;2.17;1.00;;;29.40;99.90;;;;;;12421834;28;20395;-35
2022/09/05 14:59:56;;;;;;;2.95;0.90;;;29.80;99.90;;;;;;12424471;28;20073;-35
2022/09/05 15:06:21;;;;;;;3.03;1.02;;;29.60;99.90;;;;;;12421047;28;20068;-34
2022/09/05 15:12:36;;;;;;;1.20;0.80;;;29.40;99.90;;;;;;12429184;28;20409;-34
2022/09/05 15:18:52;;;;;;;2.45;1.25;;;29.60;99.90;;;;;;12427683;28;20137;-35
2022/09/05 15:25:20;;;;;;;4.78;1.00;;;29.50;99.90;;;;;;12427457;28;20044;-35
2022/09/05 15:31:24;;;;;;;2.35;0.85;;;29.30;99.90;;;;;;12437360;28;20037;-35
2022/09/05 15:37:39;;;;;;;2.53;0.90;;;28.80;99.90;;;;;;12452808;28;20562;-35
2022/09/05 15:44:03;;;;;;;2.75;1.00;;;28.30;99.90;;;;;;12437625;28;20042;-35
2022/09/05 15:50:12;;;;;;;5.63;2.15;;;28.00;99.90;;;;;;12432468;28;20405;-35
2022/09/05 15:56:25;;;;;;;;;;;27.90;99.90;;;;;;12434781;28;20042;-34
2022/09/05 16:02:30;;;;;;;4.20;1.85;;;27.80;99.90;;;;;;12435432;28;20369;-34
2022/09/05 16:08:39;;;;;;;3.17;1.50;;;27.20;99.90;;;;;;12436220;28;20444;-34
2022/09/05 16:15:03;;;;;;;5.07;1.83;;;26.90;99.90;;;;;;12420518;28;20045;-35
2022/09/05 16:21:26;;;;;;;3.60;1.98;;;26.60;99.90;;;;;;12421091;28;20081;-34
2022/09/05 16:28:01;;;;;;;3.65;1.80;;;26.40;99.90;;;;;;12427107;28;20050;-34
2022/09/05 16:34:06;;;;;;;4.30;2.25;;;26.40;99.90;;;;;;12423496;28;20081;-34
2022/09/05 16:40:26;;;;;;;4.88;1.90;;;26.30;99.90;;;;;;12419454;28;20045;-34
2022/09/05 16:46:42;;;;;;;5.53;2.33;;;26.20;99.90;;;;;;12427244;28;20107;-34
2022/09/05 16:52:43;;;;;;;6.50;2.40;;;26.10;99.90;;;;;;12423117;28;20456;-35
2022/09/05 16:59:01;;;;;;;6.85;2.10;;;26.00;99.90;;;;;;12426953;28;20053;-35
2022/09/05 17:05:09;;;;;;;6.40;2.55;;;26.10;99.90;;;;;;12427417;28;20050;-35
2022/09/05 17:11:15;;;;;;;7.32;2.30;;;26.10;99.90;;;;;;12422769;28;20601;-34
2022/09/05 17:17:37;;;;;;;6.75;2.20;;;26.00;99.90;;;;;;12431930;28;20058;-34
2022/09/05 17:24:02;;;;;;;7.40;2.50;;;25.90;99.90;;;;;;12442117;28;20168;-34
2022/09/05 17:30:36;;;;;;;5.82;2.33;;;25.70;99.90;;;;;;12441272;28;20057;-35
2022/09/05 17:37:18;;;;;;;5.78;2.22;;;25.50;99.90;;;;;;12448517;28;20050;-34
2022/09/05 17:43:28;;;;;;;5.18;2.22;;;25.40;99.90;;;;;;12441491;28;20181;-34
2022/09/05 17:49:41;;;;;;;6.85;2.60;;;25.30;99.90;;;;;;12436764;28;20052;-34
2022/09/05 17:55:43;;;;;;;5.47;2.60;;;25.20;99.90;;;;;;12434780;28;20050;-34
2022/09/05 18:02:00;;;;;;;9.68;2.33;;;25.00;99.90;;;;;;12439252;28;20390;-34
2022/09/05 18:08:02;;;;;;;4.28;2.60;;;25.00;99.90;;;;;;12434968;28;20124;-34
2022/09/05 18:14:24;;;;;;;4.03;2.27;;;24.90;99.90;;;;;;12430929;28;20038;-35
2022/09/05 18:20:53;;;;;;;8.90;2.58;;;24.80;99.90;;;;;;12424397;28;20520;-34
2022/09/05 18:27:23;;;;;;;7.63;2.50;;;24.70;99.90;;;;;;12428843;28;20398;-34
2022/09/05 18:34:12;;;;;;;6.50;2.22;;;24.60;99.90;;;;;;12422531;28;20058;-34
2022/09/05 18:40:42;;;;;;;4.50;2.35;;;24.50;99.90;;;;;;12403880;28;20076;-34
2022/09/05 18:46:51;;;;;;;4.47;2.58;;;24.40;99.90;;;;;;12424644;28;20076;-34
2022/09/05 18:52:58;;;;;;;7.45;2.70;;;24.30;99.90;;;;;;12437626;28;20113;-34
2022/09/05 18:59:19;;;;;;;4.07;2.42;;;24.30;99.90;;;;;;12403037;28;20046;-34
2022/09/05 19:05:37;;;;;;;7.20;2.70;;;24.30;99.90;;;;;;12388955;28;20071;-34
2022/09/05 19:11:57;;;;;;;5.57;2.53;;;24.10;99.90;;;;;;12408779;28;20042;-34
2022/09/05 19:18:23;;;;;;;6.60;2.55;;;24.00;99.90;;;;;;12417037;28;20084;-34
2022/09/05 19:24:34;;;;;;;4.53;2.58;;;23.90;99.90;;;;;;12419637;28;20046;-34
2022/09/05 19:31:27;;;;;;;6.60;2.75;;;23.90;99.90;;;;;;12432922;28;20520;-34
2022/09/05 19:37:49;;;;;;;6.75;2.50;;;23.70;99.90;;;;;;12421141;28;20061;-34
2022/09/05 19:44:01;;;;;;;6.65;2.53;;;23.60;99.90;;;;;;12433897;28;20046;-35
2022/09/05 19:50:27;;;;;;;5.20;2.40;;;23.50;99.90;;;;;;12426863;28;20128;-34
2022/09/05 19:56:37;;;;;;;6.43;2.55;;;23.40;99.90;;;;;;12424552;28;20058;-34
2022/09/05 20:02:42;;;;;;;5.30;2.60;;;23.40;99.90;;;;;;12427415;28;20053;-35
2022/09/05 20:08:47;;;;;;;4.00;2.47;;;23.30;99.90;;;;;;12426624;28;20086;-34
2022/09/05 20:14:48;;;;;;;8.95;2.58;;;23.20;99.90;;;;;;12426527;28;20057;-34
2022/09/05 20:20:52;;;;;;;7.05;2.55;;;23.10;99.90;;;;;;12406147;28;20092;-34
2022/09/05 20:26:54;;;;;;;;;;;23.00;99.90;;;;;;12409537;28;20054;-34
2022/09/05 20:33:10;;;;;;;6.63;2.78;;;22.90;99.90;;;;;;12408119;28;19921;-34
2022/09/05 20:39:27;;;;;;;5.35;2.20;;;22.90;99.90;;;;;;12405636;28;20050;-34
2022/09/05 20:45:54;;;;;;;6.25;2.63;;;22.80;99.90;;;;;;12399594;28;20704;-34
2022/09/05 20:52:47;;;;;;;8.40;2.95;;;22.70;99.90;;;;;;12412965;28;20053;-33
2022/09/05 20:59:20;;;;;;;8.93;2.50;;;22.70;99.90;;;;;;12409827;28;20076;-34
2022/09/05 21:05:29;;;;;;;5.88;2.50;;;22.60;99.90;;;;;;12414047;28;20305;-34
2022/09/05 21:11:31;;;;;;;5.75;2.35;;;22.50;99.90;;;;;;12403452;28;20043;-35
2022/09/05 21:17:34;;;;;;;5.22;2.70;;;22.40;99.90;;;;;;12413658;28;20046;-34
2022/09/05 21:23:37;;;;;;;5.55;3.00;;;22.40;99.90;;;;;;12429544;28;20038;-34
2022/09/05 21:29:39;;;;;;;7.70;2.60;;;22.30;99.90;;;;;;12434928;28;20421;-35
2022/09/05 21:35:45;;;;;;;6.65;3.08;;;22.20;99.90;;;;;;12435092;28;20144;-34
2022/09/05 21:41:49;;;;;;;6.70;2.95;;;22.20;99.90;;;;;;12436858;28;20041;-34
2022/09/05 21:48:13;;;;;;;6.40;2.50;;;22.20;99.90;;;;;;12445994;28;20065;-34
2022/09/05 21:54:19;;;;;;;4.50;2.80;;;22.10;99.90;;;;;;12426662;28;20052;-33
2022/09/05 22:00:41;;;;;;;5.13;2.80;;;22.10;99.90;;;;;;12430400;28;20489;-33
2022/09/05 22:06:47;;;;;;;6.00;2.90;;;22.10;99.90;;;;;;12428077;28;20053;-34
2022/09/05 22:12:49;;;;;;;4.82;3.00;;;21.90;99.90;;;;;;12434930;28;20085;-33
2022/09/05 22:18:52;;;;;;;5.07;2.70;;;22.00;99.90;;;;;;12415569;28;20058;-33
2022/09/05 22:25:08;;;;;;;7.07;3.50;;;21.90;99.90;;;;;;12424996;28;20456;-33
2022/09/05 22:31:10;;;;;;;5.15;3.30;;;21.90;99.90;;;;;;12417428;28;20050;-33
2022/09/05 22:37:15;;;;;;;7.70;3.22;;;21.80;99.90;;;;;;12416088;28;20064;-34
2022/09/05 22:43:16;;;;;;;7.28;3.17;;;21.70;99.90;;;;;;12415216;28;20046;-33
2022/09/05 22:49:18;;;;;;;5.32;3.03;;;21.60;99.90;;;;;;12414798;28;20173;-33
2022/09/05 22:55:20;;;;;;;5.57;3.22;;;21.60;99.90;;;;;;12414958;28;20131;-34
2022/09/05 23:01:22;;;;;;;5.07;3.25;;;21.50;99.90;;;;;;12414344;28;20046;-34
2022/09/05 23:07:24;;;;;;;6.32;3.10;;;21.50;99.90;;;;;;12421882;28;20041;-34
2022/09/05 23:13:25;;;;;;;4.68;3.20;;;21.50;99.90;;;;;;12413832;28;20145;-34
2022/09/05 23:19:29;;;;;;;8.30;3.13;;;21.30;99.90;;;;;;12421522;28;20115;-34
2022/09/05 23:25:32;;;;;;;7.65;3.63;;;21.30;99.90;;;;;;12427865;28;20045;-34
2022/09/05 23:31:34;;;;;;;4.07;3.20;;;21.30;99.90;;;;;;12435736;28;20598;-34
2022/09/05 23:37:35;;;;;;;4.82;3.22;;;21.30;99.90;;;;;;12435700;28;20056;-33
2022/09/05 23:43:37;;;;;;;4.15;3.22;;;21.30;99.90;;;;;;12424622;28;20241;-33
2022/09/05 23:49:39;;;;;;;4.82;3.45;;;21.40;99.90;;;;;;12436148;28;20091;-35
2022/09/05 23:55:42;;;;;;;7.22;3.63;;;21.20;99.90;;;;;;12430091;28;20417;-34
